sensor_id;sensor_type;location;lat;lon;timestamp;temperature;humidity
16532;DHT22;66872;63.142;14.482;2023-02-28T00:00:11;13.70;29.50
16532;DHT22;66872;63.142;14.482;2023-02-28T00:02:39;13.70;29.50
16532;DHT22;66872;63.142;14.482;2023-02-28T00:05:06;13.70;29.50
16532;DHT22;66872;63.142;14.482;2023-02-28T00:07:32;13.70;29.50
16532;DHT22;66872;63.142;14.482;2023-02-28T00:09:59;13.70;29.50
16532;DHT22;66872;63.142;14.482;2023-02-28T00:12:25;13.70;29.50
16532;DHT22;66872;63.142;14.482;2023-02-28T00:14:52;13.70;29.50
16532;DHT22;66872;63.142;14.482;2023-02-28T00:17:18;13.70;29.50
16532;DHT22;66872;63.142;14.482;2023-02-28T00:19:47;13.70;29.50
16532;DHT22;66872;63.142;14.482;2023-02-28T00:22:15;13.70;29.50
16532;DHT22;66872;63.142;14.482;2023-02-28T00:24:41;13.70;29.50
16532;DHT22;66872;63.142;14.482;2023-02-28T00:27:07;13.70;29.50
16532;DHT22;66872;63.142;14.482;2023-02-28T00:29:32;13.70;29.50
16532;DHT22;66872;63.142;14.482;2023-02-28T00:31:58;13.70;29.50
16532;DHT22;66872;63.142;14.482;2023-02-28T00:34:24;13.70;29.50
16532;DHT22;66872;63.142;14.482;2023-02-28T00:36:50;13.70;29.50
16532;DHT22;66872;63.142;14.482;2023-02-28T00:39:16;13.70;30.00
16532;DHT22;66872;63.142;14.482;2023-02-28T00:41:41;13.70;29.50
16532;DHT22;66872;63.142;14.482;2023-02-28T00:44:07;13.70;29.60
16532;DHT22;66872;63.142;14.482;2023-02-28T00:46:33;13.60;29.50
16532;DHT22;66872;63.142;14.482;2023-02-28T00:48:59;13.70;29.60
16532;DHT22;66872;63.142;14.482;2023-02-28T00:51:24;13.70;29.60
16532;DHT22;66872;63.142;14.482;2023-02-28T00:53:50;13.60;29.50
16532;DHT22;66872;63.142;14.482;2023-02-28T00:56:16;13.60;29.50
16532;DHT22;66872;63.142;14.482;2023-02-28T00:58:42;13.60;29.50
16532;DHT22;66872;63.142;14.482;2023-02-28T01:01:08;13.60;29.50
16532;DHT22;66872;63.142;14.482;2023-02-28T01:03:34;13.60;29.60
16532;DHT22;66872;63.142;14.482;2023-02-28T01:05:59;13.70;29.60
16532;DHT22;66872;63.142;14.482;2023-02-28T01:08:25;13.70;29.60
16532;DHT22;66872;63.142;14.482;2023-02-28T01:10:52;13.60;29.60
16532;DHT22;66872;63.142;14.482;2023-02-28T01:13:18;13.70;29.60
16532;DHT22;66872;63.142;14.482;2023-02-28T01:15:50;13.70;29.60
16532;DHT22;66872;63.142;14.482;2023-02-28T01:18:16;13.70;29.60
16532;DHT22;66872;63.142;14.482;2023-02-28T01:20:42;13.70;29.60
16532;DHT22;66872;63.142;14.482;2023-02-28T01:23:08;13.70;29.60
16532;DHT22;66872;63.142;14.482;2023-02-28T01:25:35;13.70;29.50
16532;DHT22;66872;63.142;14.482;2023-02-28T01:28:01;13.70;29.50
16532;DHT22;66872;63.142;14.482;2023-02-28T01:30:27;13.70;29.50
16532;DHT22;66872;63.142;14.482;2023-02-28T01:32:53;13.70;29.50
16532;DHT22;66872;63.142;14.482;2023-02-28T01:35:19;13.70;29.60
16532;DHT22;66872;63.142;14.482;2023-02-28T01:37:45;13.70;29.60
16532;DHT22;66872;63.142;14.482;2023-02-28T01:40:12;13.70;29.60
16532;DHT22;66872;63.142;14.482;2023-02-28T01:42:38;13.70;29.60
16532;DHT22;66872;63.142;14.482;2023-02-28T01:45:27;13.70;29.60
16532;DHT22;66872;63.142;14.482;2023-02-28T01:48:05;13.70;29.60
16532;DHT22;66872;63.142;14.482;2023-02-28T01:50:36;13.70;29.60
16532;DHT22;66872;63.142;14.482;2023-02-28T01:53:06;13.70;29.60
16532;DHT22;66872;63.142;14.482;2023-02-28T01:55:33;13.70;29.60
16532;DHT22;66872;63.142;14.482;2023-02-28T01:58:02;13.70;29.60
16532;DHT22;66872;63.142;14.482;2023-02-28T02:00:30;13.70;29.60
16532;DHT22;66872;63.142;14.482;2023-02-28T02:03:03;13.70;29.60
16532;DHT22;66872;63.142;14.482;2023-02-28T02:05:30;13.70;29.60
16532;DHT22;66872;63.142;14.482;2023-02-28T02:08:01;13.70;29.50
16532;DHT22;66872;63.142;14.482;2023-02-28T02:10:35;13.70;29.60
16532;DHT22;66872;63.142;14.482;2023-02-28T02:38:32;13.70;29.70
16532;DHT22;66872;63.142;14.482;2023-02-28T02:40:46;13.70;29.60
16532;DHT22;66872;63.142;14.482;2023-02-28T02:45:47;13.70;29.60
16532;DHT22;66872;63.142;14.482;2023-02-28T02:48:19;13.70;29.60
16532;DHT22;66872;63.142;14.482;2023-02-28T02:50:53;13.70;29.60
16532;DHT22;66872;63.142;14.482;2023-02-28T02:53:25;13.80;29.70
16532;DHT22;66872;63.142;14.482;2023-02-28T02:55:54;13.70;29.60
16532;DHT22;66872;63.142;14.482;2023-02-28T02:58:25;13.70;29.60
16532;DHT22;66872;63.142;14.482;2023-02-28T03:00:58;13.70;29.60
16532;DHT22;66872;63.142;14.482;2023-02-28T03:03:26;13.70;29.60
16532;DHT22;66872;63.142;14.482;2023-02-28T03:05:57;13.70;29.70
16532;DHT22;66872;63.142;14.482;2023-02-28T03:08:23;13.70;29.70
16532;DHT22;66872;63.142;14.482;2023-02-28T03:10:51;13.70;29.60
16532;DHT22;66872;63.142;14.482;2023-02-28T03:19:40;13.70;29.70
16532;DHT22;66872;63.142;14.482;2023-02-28T03:30:29;13.70;29.70
16532;DHT22;66872;63.142;14.482;2023-02-28T03:32:56;13.70;29.60
16532;DHT22;66872;63.142;14.482;2023-02-28T03:35:27;13.70;29.60
16532;DHT22;66872;63.142;14.482;2023-02-28T03:38:13;13.80;29.70
16532;DHT22;66872;63.142;14.482;2023-02-28T03:40:46;13.80;29.70
16532;DHT22;66872;63.142;14.482;2023-02-28T03:43:25;13.80;29.70
16532;DHT22;66872;63.142;14.482;2023-02-28T03:45:55;13.80;29.70
16532;DHT22;66872;63.142;14.482;2023-02-28T03:48:32;13.80;29.70
16532;DHT22;66872;63.142;14.482;2023-02-28T03:51:03;13.80;29.70
16532;DHT22;66872;63.142;14.482;2023-02-28T03:53:34;13.80;29.70
16532;DHT22;66872;63.142;14.482;2023-02-28T03:56:18;13.80;29.70
16532;DHT22;66872;63.142;14.482;2023-02-28T04:01:21;13.70;29.60
16532;DHT22;66872;63.142;14.482;2023-02-28T04:03:49;13.80;29.70
16532;DHT22;66872;63.142;14.482;2023-02-28T04:06:18;13.80;29.70
16532;DHT22;66872;63.142;14.482;2023-02-28T04:08:44;13.70;29.70
16532;DHT22;66872;63.142;14.482;2023-02-28T04:11:31;13.80;29.70
16532;DHT22;66872;63.142;14.482;2023-02-28T04:13:57;13.80;29.70
16532;DHT22;66872;63.142;14.482;2023-02-28T04:16:23;13.80;29.70
16532;DHT22;66872;63.142;14.482;2023-02-28T04:18:48;13.80;29.70
16532;DHT22;66872;63.142;14.482;2023-02-28T04:21:14;13.80;29.70
16532;DHT22;66872;63.142;14.482;2023-02-28T04:23:40;13.80;29.70
16532;DHT22;66872;63.142;14.482;2023-02-28T04:26:06;13.80;29.70
16532;DHT22;66872;63.142;14.482;2023-02-28T04:28:32;13.80;29.70
16532;DHT22;66872;63.142;14.482;2023-02-28T04:31:01;13.80;29.70
16532;DHT22;66872;63.142;14.482;2023-02-28T04:33:27;13.80;29.70
16532;DHT22;66872;63.142;14.482;2023-02-28T04:36:04;13.80;29.70
16532;DHT22;66872;63.142;14.482;2023-02-28T04:38:37;13.80;29.70
16532;DHT22;66872;63.142;14.482;2023-02-28T04:41:04;13.80;29.70
16532;DHT22;66872;63.142;14.482;2023-02-28T04:43:31;13.80;29.70
16532;DHT22;66872;63.142;14.482;2023-02-28T04:45:58;13.70;29.70
16532;DHT22;66872;63.142;14.482;2023-02-28T04:48:25;13.80;29.70
16532;DHT22;66872;63.142;14.482;2023-02-28T04:50:51;13.80;29.70
16532;DHT22;66872;63.142;14.482;2023-02-28T04:53:17;13.80;29.70
16532;DHT22;66872;63.142;14.482;2023-02-28T04:55:44;13.80;29.70
16532;DHT22;66872;63.142;14.482;2023-02-28T04:58:10;13.80;29.70
16532;DHT22;66872;63.142;14.482;2023-02-28T05:00:36;13.80;29.70
16532;DHT22;66872;63.142;14.482;2023-02-28T05:03:02;13.80;29.70
16532;DHT22;66872;63.142;14.482;2023-02-28T05:05:27;13.80;29.70
16532;DHT22;66872;63.142;14.482;2023-02-28T05:07:53;13.80;29.70
16532;DHT22;66872;63.142;14.482;2023-02-28T05:10:21;13.80;29.70
16532;DHT22;66872;63.142;14.482;2023-02-28T05:12:47;13.80;29.70
16532;DHT22;66872;63.142;14.482;2023-02-28T05:15:14;13.80;29.70
16532;DHT22;66872;63.142;14.482;2023-02-28T05:17:40;13.80;29.70
16532;DHT22;66872;63.142;14.482;2023-02-28T05:20:06;13.80;29.70
16532;DHT22;66872;63.142;14.482;2023-02-28T05:22:32;13.80;29.70
16532;DHT22;66872;63.142;14.482;2023-02-28T05:24:58;13.80;29.70
16532;DHT22;66872;63.142;14.482;2023-02-28T05:27:24;13.80;29.70
16532;DHT22;66872;63.142;14.482;2023-02-28T05:29:50;13.80;29.70
16532;DHT22;66872;63.142;14.482;2023-02-28T05:32:16;13.80;29.70
16532;DHT22;66872;63.142;14.482;2023-02-28T05:34:41;13.80;29.80
16532;DHT22;66872;63.142;14.482;2023-02-28T05:37:16;13.80;29.70
16532;DHT22;66872;63.142;14.482;2023-02-28T05:39:42;13.80;29.80
16532;DHT22;66872;63.142;14.482;2023-02-28T05:42:08;13.80;29.70
16532;DHT22;66872;63.142;14.482;2023-02-28T05:44:35;13.80;29.70
16532;DHT22;66872;63.142;14.482;2023-02-28T05:47:01;13.80;29.70
16532;DHT22;66872;63.142;14.482;2023-02-28T05:49:27;13.80;29.80
16532;DHT22;66872;63.142;14.482;2023-02-28T05:51:53;13.70;29.70
16532;DHT22;66872;63.142;14.482;2023-02-28T05:54:18;13.70;29.70
16532;DHT22;66872;63.142;14.482;2023-02-28T05:56:44;13.70;29.80
16532;DHT22;66872;63.142;14.482;2023-02-28T05:59:12;13.80;29.80
16532;DHT22;66872;63.142;14.482;2023-02-28T06:01:40;13.80;29.80
16532;DHT22;66872;63.142;14.482;2023-02-28T06:04:09;13.80;29.80
16532;DHT22;66872;63.142;14.482;2023-02-28T06:06:36;13.80;29.80
16532;DHT22;66872;63.142;14.482;2023-02-28T06:09:05;13.80;29.80
16532;DHT22;66872;63.142;14.482;2023-02-28T06:11:32;13.80;29.80
16532;DHT22;66872;63.142;14.482;2023-02-28T06:13:59;13.80;29.80
16532;DHT22;66872;63.142;14.482;2023-02-28T06:16:27;13.80;29.80
16532;DHT22;66872;63.142;14.482;2023-02-28T06:18:53;13.80;29.80
16532;DHT22;66872;63.142;14.482;2023-02-28T06:21:21;13.80;29.80
16532;DHT22;66872;63.142;14.482;2023-02-28T06:23:47;13.80;29.80
16532;DHT22;66872;63.142;14.482;2023-02-28T06:26:13;13.80;29.80
16532;DHT22;66872;63.142;14.482;2023-02-28T06:28:39;13.80;29.80
16532;DHT22;66872;63.142;14.482;2023-02-28T06:31:10;13.80;29.80
16532;DHT22;66872;63.142;14.482;2023-02-28T06:33:37;13.80;29.80
16532;DHT22;66872;63.142;14.482;2023-02-28T06:36:03;13.80;29.80
16532;DHT22;66872;63.142;14.482;2023-02-28T06:38:30;13.80;29.70
16532;DHT22;66872;63.142;14.482;2023-02-28T06:40:57;13.80;29.70
16532;DHT22;66872;63.142;14.482;2023-02-28T06:43:23;13.80;29.70
16532;DHT22;66872;63.142;14.482;2023-02-28T06:45:49;13.80;29.70
16532;DHT22;66872;63.142;14.482;2023-02-28T06:48:15;13.80;29.70
16532;DHT22;66872;63.142;14.482;2023-02-28T06:50:41;13.80;29.70
16532;DHT22;66872;63.142;14.482;2023-02-28T06:53:07;13.80;29.70
16532;DHT22;66872;63.142;14.482;2023-02-28T06:55:33;13.90;29.70
16532;DHT22;66872;63.142;14.482;2023-02-28T06:57:58;13.90;29.70
16532;DHT22;66872;63.142;14.482;2023-02-28T07:00:24;13.90;29.70
16532;DHT22;66872;63.142;14.482;2023-02-28T07:02:50;13.90;29.70
16532;DHT22;66872;63.142;14.482;2023-02-28T07:05:16;13.90;29.70
16532;DHT22;66872;63.142;14.482;2023-02-28T07:07:42;13.90;29.70
16532;DHT22;66872;63.142;14.482;2023-02-28T07:10:13;13.90;29.60
16532;DHT22;66872;63.142;14.482;2023-02-28T07:12:42;13.90;29.60
16532;DHT22;66872;63.142;14.482;2023-02-28T07:15:09;13.90;29.60
16532;DHT22;66872;63.142;14.482;2023-02-28T07:17:35;13.90;29.60
16532;DHT22;66872;63.142;14.482;2023-02-28T07:20:00;14.00;29.60
16532;DHT22;66872;63.142;14.482;2023-02-28T07:22:26;14.00;29.60
16532;DHT22;66872;63.142;14.482;2023-02-28T07:24:54;14.00;29.50
16532;DHT22;66872;63.142;14.482;2023-02-28T07:27:19;14.00;29.50
16532;DHT22;66872;63.142;14.482;2023-02-28T07:29:51;14.00;29.50
16532;DHT22;66872;63.142;14.482;2023-02-28T07:32:18;14.00;29.50
16532;DHT22;66872;63.142;14.482;2023-02-28T07:34:44;14.10;29.50
16532;DHT22;66872;63.142;14.482;2023-02-28T07:37:10;14.10;29.40
16532;DHT22;66872;63.142;14.482;2023-02-28T07:39:36;14.10;29.40
16532;DHT22;66872;63.142;14.482;2023-02-28T07:42:05;14.10;29.40
16532;DHT22;66872;63.142;14.482;2023-02-28T07:44:32;14.10;29.30
16532;DHT22;66872;63.142;14.482;2023-02-28T07:46:58;14.20;29.40
16532;DHT22;66872;63.142;14.482;2023-02-28T07:49:23;14.20;29.30
16532;DHT22;66872;63.142;14.482;2023-02-28T07:51:49;14.20;29.30
16532;DHT22;66872;63.142;14.482;2023-02-28T07:54:15;14.20;29.20
16532;DHT22;66872;63.142;14.482;2023-02-28T07:56:40;14.30;29.30
16532;DHT22;66872;63.142;14.482;2023-02-28T07:59:06;14.30;29.20
16532;DHT22;66872;63.142;14.482;2023-02-28T08:01:32;14.30;29.20
16532;DHT22;66872;63.142;14.482;2023-02-28T08:03:57;14.30;29.10
16532;DHT22;66872;63.142;14.482;2023-02-28T08:06:25;14.30;29.10
16532;DHT22;66872;63.142;14.482;2023-02-28T08:08:52;14.30;29.00
16532;DHT22;66872;63.142;14.482;2023-02-28T08:11:19;14.40;29.10
16532;DHT22;66872;63.142;14.482;2023-02-28T08:13:45;14.40;29.00
16532;DHT22;66872;63.142;14.482;2023-02-28T08:16:11;14.40;29.00
16532;DHT22;66872;63.142;14.482;2023-02-28T08:18:39;14.40;28.90
16532;DHT22;66872;63.142;14.482;2023-02-28T08:21:09;14.40;28.90
16532;DHT22;66872;63.142;14.482;2023-02-28T08:23:35;14.50;28.90
16532;DHT22;66872;63.142;14.482;2023-02-28T08:26:02;14.50;29.40
16532;DHT22;66872;63.142;14.482;2023-02-28T08:28:28;14.50;28.80
16532;DHT22;66872;63.142;14.482;2023-02-28T08:30:54;14.50;28.80
16532;DHT22;66872;63.142;14.482;2023-02-28T08:33:21;14.60;28.80
16532;DHT22;66872;63.142;14.482;2023-02-28T08:35:48;14.60;28.70
16532;DHT22;66872;63.142;14.482;2023-02-28T08:38:13;14.70;28.70
16532;DHT22;66872;63.142;14.482;2023-02-28T08:40:39;14.70;28.60
16532;DHT22;66872;63.142;14.482;2023-02-28T08:43:06;14.70;28.60
16532;DHT22;66872;63.142;14.482;2023-02-28T08:45:31;14.70;28.50
16532;DHT22;66872;63.142;14.482;2023-02-28T08:47:57;14.80;28.50
16532;DHT22;66872;63.142;14.482;2023-02-28T08:50:23;14.80;28.40
16532;DHT22;66872;63.142;14.482;2023-02-28T08:52:48;14.80;28.40
16532;DHT22;66872;63.142;14.482;2023-02-28T08:55:14;14.80;28.30
16532;DHT22;66872;63.142;14.482;2023-02-28T08:57:40;14.90;28.30
16532;DHT22;66872;63.142;14.482;2023-02-28T09:00:07;14.90;28.20
16532;DHT22;66872;63.142;14.482;2023-02-28T09:02:34;14.90;28.10
16532;DHT22;66872;63.142;14.482;2023-02-28T09:04:59;15.00;28.00
16532;DHT22;66872;63.142;14.482;2023-02-28T09:07:25;15.00;27.90
16532;DHT22;66872;63.142;14.482;2023-02-28T09:09:51;15.00;27.70
16532;DHT22;66872;63.142;14.482;2023-02-28T09:12:24;15.00;27.60
16532;DHT22;66872;63.142;14.482;2023-02-28T09:14:51;15.00;27.60
16532;DHT22;66872;63.142;14.482;2023-02-28T09:17:17;15.00;27.60
16532;DHT22;66872;63.142;14.482;2023-02-28T09:19:43;15.00;27.50
16532;DHT22;66872;63.142;14.482;2023-02-28T09:22:10;15.00;27.50
16532;DHT22;66872;63.142;14.482;2023-02-28T09:24:38;15.00;27.50
16532;DHT22;66872;63.142;14.482;2023-02-28T09:27:05;15.00;27.50
16532;DHT22;66872;63.142;14.482;2023-02-28T09:29:33;15.00;27.50
16532;DHT22;66872;63.142;14.482;2023-02-28T09:32:00;15.00;27.50
16532;DHT22;66872;63.142;14.482;2023-02-28T09:34:26;15.00;27.50
16532;DHT22;66872;63.142;14.482;2023-02-28T09:36:52;15.00;27.50
16532;DHT22;66872;63.142;14.482;2023-02-28T09:39:21;15.00;27.40
16532;DHT22;66872;63.142;14.482;2023-02-28T09:41:50;15.00;27.50
16532;DHT22;66872;63.142;14.482;2023-02-28T09:46:51;15.00;27.40
16532;DHT22;66872;63.142;14.482;2023-02-28T09:49:25;15.10;27.50
16532;DHT22;66872;63.142;14.482;2023-02-28T09:52:17;15.10;27.40
16532;DHT22;66872;63.142;14.482;2023-02-28T09:54:45;15.10;27.40
16532;DHT22;66872;63.142;14.482;2023-02-28T09:57:23;15.10;27.30
16532;DHT22;66872;63.142;14.482;2023-02-28T10:05:28;15.20;26.90
16532;DHT22;66872;63.142;14.482;2023-02-28T10:08:13;15.20;26.70
16532;DHT22;66872;63.142;14.482;2023-02-28T10:10:49;15.20;26.70
16532;DHT22;66872;63.142;14.482;2023-02-28T10:15:52;15.20;26.50
16532;DHT22;66872;63.142;14.482;2023-02-28T10:18:23;15.30;26.60
16532;DHT22;66872;63.142;14.482;2023-02-28T10:20:50;15.30;26.60
16532;DHT22;66872;63.142;14.482;2023-02-28T10:23:25;15.30;26.50
16532;DHT22;66872;63.142;14.482;2023-02-28T10:26:15;15.30;26.50
16532;DHT22;66872;63.142;14.482;2023-02-28T10:28:42;15.30;26.50
16532;DHT22;66872;63.142;14.482;2023-02-28T10:31:14;15.30;26.40
16532;DHT22;66872;63.142;14.482;2023-02-28T10:33:42;15.30;26.40
16532;DHT22;66872;63.142;14.482;2023-02-28T10:36:12;15.40;26.40
16532;DHT22;66872;63.142;14.482;2023-02-28T10:38:39;15.40;26.70
16532;DHT22;66872;63.142;14.482;2023-02-28T10:41:09;15.40;26.80
16532;DHT22;66872;63.142;14.482;2023-02-28T10:43:37;15.40;26.80
16532;DHT22;66872;63.142;14.482;2023-02-28T10:46:04;15.40;26.80
16532;DHT22;66872;63.142;14.482;2023-02-28T10:48:44;15.40;26.80
16532;DHT22;66872;63.142;14.482;2023-02-28T10:51:15;15.40;26.80
16532;DHT22;66872;63.142;14.482;2023-02-28T10:53:51;15.40;26.80
16532;DHT22;66872;63.142;14.482;2023-02-28T10:56:20;15.40;26.80
16532;DHT22;66872;63.142;14.482;2023-02-28T11:01:21;15.40;26.70
16532;DHT22;66872;63.142;14.482;2023-02-28T11:03:48;15.40;26.80
16532;DHT22;66872;63.142;14.482;2023-02-28T11:06:29;15.40;26.80
16532;DHT22;66872;63.142;14.482;2023-02-28T11:09:04;15.40;26.80
16532;DHT22;66872;63.142;14.482;2023-02-28T11:11:42;15.40;26.80
16532;DHT22;66872;63.142;14.482;2023-02-28T11:14:20;15.40;26.70
16532;DHT22;66872;63.142;14.482;2023-02-28T11:16:47;15.40;26.70
16532;DHT22;66872;63.142;14.482;2023-02-28T11:19:20;15.40;26.70
16532;DHT22;66872;63.142;14.482;2023-02-28T11:22:00;15.40;26.70
16532;DHT22;66872;63.142;14.482;2023-02-28T11:24:33;15.40;26.70
16532;DHT22;66872;63.142;14.482;2023-02-28T11:27:00;15.40;26.70
16532;DHT22;66872;63.142;14.482;2023-02-28T11:29:30;15.40;26.70
16532;DHT22;66872;63.142;14.482;2023-02-28T11:34:38;15.50;26.60
16532;DHT22;66872;63.142;14.482;2023-02-28T11:37:08;15.50;26.60
16532;DHT22;66872;63.142;14.482;2023-02-28T11:39:36;15.50;26.60
16532;DHT22;66872;63.142;14.482;2023-02-28T11:56:44;15.50;26.40
16532;DHT22;66872;63.142;14.482;2023-02-28T12:01:45;15.50;26.40
16532;DHT22;66872;63.142;14.482;2023-02-28T12:04:50;15.50;26.30
16532;DHT22;66872;63.142;14.482;2023-02-28T12:10:06;15.50;26.30
16532;DHT22;66872;63.142;14.482;2023-02-28T12:12:48;15.50;26.30
16532;DHT22;66872;63.142;14.482;2023-02-28T12:20:53;15.60;26.30
16532;DHT22;66872;63.142;14.482;2023-02-28T12:29:23;15.50;26.10
16532;DHT22;66872;63.142;14.482;2023-02-28T12:32:06;15.60;26.10
16532;DHT22;66872;63.142;14.482;2023-02-28T12:34:38;15.60;26.10
16532;DHT22;66872;63.142;14.482;2023-02-28T12:37:12;15.60;26.00
16532;DHT22;66872;63.142;14.482;2023-02-28T12:39:53;15.60;26.00
16532;DHT22;66872;63.142;14.482;2023-02-28T12:42:49;15.60;26.00
16532;DHT22;66872;63.142;14.482;2023-02-28T12:45:45;15.60;26.00
16532;DHT22;66872;63.142;14.482;2023-02-28T12:48:15;15.60;26.00
16532;DHT22;66872;63.142;14.482;2023-02-28T12:50:45;15.60;25.90
16532;DHT22;66872;63.142;14.482;2023-02-28T12:58:53;15.50;25.80
16532;DHT22;66872;63.142;14.482;2023-02-28T13:07:29;15.50;25.70
16532;DHT22;66872;63.142;14.482;2023-02-28T13:10:00;15.50;25.70
16532;DHT22;66872;63.142;14.482;2023-02-28T13:12:28;15.50;25.60
16532;DHT22;66872;63.142;14.482;2023-02-28T13:15:22;15.50;25.60
16532;DHT22;66872;63.142;14.482;2023-02-28T13:17:52;15.50;25.60
16532;DHT22;66872;63.142;14.482;2023-02-28T13:20:25;15.50;25.60
16532;DHT22;66872;63.142;14.482;2023-02-28T13:22:53;15.50;25.60
16532;DHT22;66872;63.142;14.482;2023-02-28T13:27:49;15.60;25.70
16532;DHT22;66872;63.142;14.482;2023-02-28T13:33:34;15.60;25.60
16532;DHT22;66872;63.142;14.482;2023-02-28T13:38:45;15.60;26.10
16532;DHT22;66872;63.142;14.482;2023-02-28T13:44:20;15.50;25.50
16532;DHT22;66872;63.142;14.482;2023-02-28T13:57:33;15.50;25.50
16532;DHT22;66872;63.142;14.482;2023-02-28T14:00:35;15.50;25.50
16532;DHT22;66872;63.142;14.482;2023-02-28T14:08:34;15.50;25.50
16532;DHT22;66872;63.142;14.482;2023-02-28T14:11:15;15.50;25.60
16532;DHT22;66872;63.142;14.482;2023-02-28T14:13:48;15.50;25.60
16532;DHT22;66872;63.142;14.482;2023-02-28T14:16:24;15.50;25.60
16532;DHT22;66872;63.142;14.482;2023-02-28T14:18:56;15.50;25.60
16532;DHT22;66872;63.142;14.482;2023-02-28T14:21:28;15.50;25.60
16532;DHT22;66872;63.142;14.482;2023-02-28T14:24:20;15.50;25.60
16532;DHT22;66872;63.142;14.482;2023-02-28T14:37:52;15.40;25.60
16532;DHT22;66872;63.142;14.482;2023-02-28T14:40:29;15.40;25.60
16532;DHT22;66872;63.142;14.482;2023-02-28T14:43:03;15.40;25.70
16532;DHT22;66872;63.142;14.482;2023-02-28T14:45:32;15.40;26.20
16532;DHT22;66872;63.142;14.482;2023-02-28T14:47:59;15.40;25.70
16532;DHT22;66872;63.142;14.482;2023-02-28T14:50:51;15.30;25.70
16532;DHT22;66872;63.142;14.482;2023-02-28T14:53:19;15.30;25.70
16532;DHT22;66872;63.142;14.482;2023-02-28T14:55:47;15.30;25.70
16532;DHT22;66872;63.142;14.482;2023-02-28T14:58:28;15.30;25.70
16532;DHT22;66872;63.142;14.482;2023-02-28T15:01:02;15.30;25.70
16532;DHT22;66872;63.142;14.482;2023-02-28T15:03:34;15.30;25.80
16532;DHT22;66872;63.142;14.482;2023-02-28T15:06:06;15.30;25.80
16532;DHT22;66872;63.142;14.482;2023-02-28T15:08:37;15.20;25.70
16532;DHT22;66872;63.142;14.482;2023-02-28T15:11:17;15.20;25.80
16532;DHT22;66872;63.142;14.482;2023-02-28T15:13:50;15.20;25.80
16532;DHT22;66872;63.142;14.482;2023-02-28T15:16:20;15.20;25.80
16532;DHT22;66872;63.142;14.482;2023-02-28T15:21:47;15.10;25.90
16532;DHT22;66872;63.142;14.482;2023-02-28T15:24:41;15.10;25.90
16532;DHT22;66872;63.142;14.482;2023-02-28T15:27:13;15.10;25.90
16532;DHT22;66872;63.142;14.482;2023-02-28T15:29:47;15.10;26.00
16532;DHT22;66872;63.142;14.482;2023-02-28T15:32:34;15.00;26.00
16532;DHT22;66872;63.142;14.482;2023-02-28T15:37:59;15.00;26.00
16532;DHT22;66872;63.142;14.482;2023-02-28T15:40:44;14.90;26.00
16532;DHT22;66872;63.142;14.482;2023-02-28T15:43:18;14.90;26.10
16532;DHT22;66872;63.142;14.482;2023-02-28T15:46:06;14.90;26.20
16532;DHT22;66872;63.142;14.482;2023-02-28T15:51:09;14.80;26.20
16532;DHT22;66872;63.142;14.482;2023-02-28T15:53:59;14.80;26.30
16532;DHT22;66872;63.142;14.482;2023-02-28T15:56:28;14.70;26.30
16532;DHT22;66872;63.142;14.482;2023-02-28T15:59:01;14.70;26.30
16532;DHT22;66872;63.142;14.482;2023-02-28T16:01:36;14.70;26.40
16532;DHT22;66872;63.142;14.482;2023-02-28T16:04:14;14.70;26.40
16532;DHT22;66872;63.142;14.482;2023-02-28T16:06:41;14.60;26.40
16532;DHT22;66872;63.142;14.482;2023-02-28T16:09:13;14.60;26.40
16532;DHT22;66872;63.142;14.482;2023-02-28T16:11:47;14.60;26.50
16532;DHT22;66872;63.142;14.482;2023-02-28T16:14:33;14.50;26.50
16532;DHT22;66872;63.142;14.482;2023-02-28T16:17:07;14.50;26.50
16532;DHT22;66872;63.142;14.482;2023-02-28T16:19:35;14.50;26.60
16532;DHT22;66872;63.142;14.482;2023-02-28T16:22:01;14.50;26.60
16532;DHT22;66872;63.142;14.482;2023-02-28T16:24:27;14.40;26.60
16532;DHT22;66872;63.142;14.482;2023-02-28T16:26:54;14.40;26.60
16532;DHT22;66872;63.142;14.482;2023-02-28T16:29:30;14.40;26.60
16532;DHT22;66872;63.142;14.482;2023-02-28T16:31:56;14.40;26.60
16532;DHT22;66872;63.142;14.482;2023-02-28T16:34:22;14.30;26.60
16532;DHT22;66872;63.142;14.482;2023-02-28T16:36:48;14.30;26.70
16532;DHT22;66872;63.142;14.482;2023-02-28T16:39:14;14.30;26.70
16532;DHT22;66872;63.142;14.482;2023-02-28T16:41:43;14.30;26.70
16532;DHT22;66872;63.142;14.482;2023-02-28T16:44:14;14.30;27.20
16532;DHT22;66872;63.142;14.482;2023-02-28T16:46:44;14.20;26.70
16532;DHT22;66872;63.142;14.482;2023-02-28T16:49:13;14.20;26.80
16532;DHT22;66872;63.142;14.482;2023-02-28T16:51:39;14.20;26.80
16532;DHT22;66872;63.142;14.482;2023-02-28T16:54:05;14.20;26.80
16532;DHT22;66872;63.142;14.482;2023-02-28T16:56:31;14.20;26.80
16532;DHT22;66872;63.142;14.482;2023-02-28T16:59:00;14.10;26.80
16532;DHT22;66872;63.142;14.482;2023-02-28T17:01:27;14.10;26.80
16532;DHT22;66872;63.142;14.482;2023-02-28T17:03:53;14.10;26.80
16532;DHT22;66872;63.142;14.482;2023-02-28T17:06:29;14.10;26.80
16532;DHT22;66872;63.142;14.482;2023-02-28T17:08:56;14.10;26.80
16532;DHT22;66872;63.142;14.482;2023-02-28T17:11:23;14.10;26.80
16532;DHT22;66872;63.142;14.482;2023-02-28T17:13:50;14.00;26.80
16532;DHT22;66872;63.142;14.482;2023-02-28T17:16:17;14.00;26.80
16532;DHT22;66872;63.142;14.482;2023-02-28T17:18:45;14.10;26.90
16532;DHT22;66872;63.142;14.482;2023-02-28T17:21:16;14.00;26.90
16532;DHT22;66872;63.142;14.482;2023-02-28T17:23:42;14.00;26.90
16532;DHT22;66872;63.142;14.482;2023-02-28T17:26:16;14.00;26.90
16532;DHT22;66872;63.142;14.482;2023-02-28T17:28:51;14.00;26.90
16532;DHT22;66872;63.142;14.482;2023-02-28T17:31:17;14.00;26.90
16532;DHT22;66872;63.142;14.482;2023-02-28T17:33:44;14.00;26.90
16532;DHT22;66872;63.142;14.482;2023-02-28T17:36:20;14.00;26.90
16532;DHT22;66872;63.142;14.482;2023-02-28T17:38:47;13.90;26.90
16532;DHT22;66872;63.142;14.482;2023-02-28T17:41:13;13.90;26.90
16532;DHT22;66872;63.142;14.482;2023-02-28T17:43:39;13.90;26.90
16532;DHT22;66872;63.142;14.482;2023-02-28T17:46:06;13.90;26.90
16532;DHT22;66872;63.142;14.482;2023-02-28T17:48:36;13.90;26.90
16532;DHT22;66872;63.142;14.482;2023-02-28T17:51:02;13.90;26.90
16532;DHT22;66872;63.142;14.482;2023-02-28T17:53:28;13.90;26.90
16532;DHT22;66872;63.142;14.482;2023-02-28T17:55:53;13.90;26.90
16532;DHT22;66872;63.142;14.482;2023-02-28T17:58:19;13.90;26.90
16532;DHT22;66872;63.142;14.482;2023-02-28T18:00:45;13.90;26.90